createdAt,value
2019-05-18T00:00:42.090Z,0
2019-05-18T00:01:42.071Z,0
2019-05-18T00:02:41.567Z,0
2019-05-18T00:03:42.049Z,0
2019-05-18T00:04:42.176Z,0
2019-05-18T00:05:42.037Z,0
2019-05-18T00:06:42.031Z,0
2019-05-18T00:07:41.772Z,0
2019-05-18T00:08:42.010Z,0
2019-05-18T00:09:42.019Z,0
2019-05-18T00:10:41.999Z,0
2019-05-18T00:11:41.990Z,0
2019-05-18T00:12:41.804Z,0
2019-05-18T00:13:41.967Z,0
2019-05-18T00:14:41.964Z,0
2019-05-18T00:15:41.957Z,0
2019-05-18T00:16:41.944Z,0
2019-05-18T00:17:41.763Z,0
2019-05-18T00:18:41.935Z,0
2019-05-18T00:19:41.934Z,0
2019-05-18T00:20:41.913Z,0
2019-05-18T00:21:41.905Z,0
2019-05-18T00:22:41.850Z,0
2019-05-18T00:23:41.639Z,0
2019-05-18T00:24:41.912Z,0
2019-05-18T00:25:41.866Z,0
2019-05-18T00:26:41.865Z,0
2019-05-18T00:27:41.604Z,0
2019-05-18T00:28:41.848Z,0
2019-05-18T00:29:41.830Z,0
2019-05-18T00:30:41.910Z,0
2019-05-18T00:31:41.875Z,0
2019-05-18T00:32:41.681Z,0
2019-05-18T00:33:41.915Z,0
2019-05-18T00:34:41.797Z,0
2019-05-18T00:35:41.789Z,0
2019-05-18T00:36:41.783Z,0
2019-05-18T00:37:41.544Z,0
2019-05-18T00:38:41.783Z,0
2019-05-18T00:39:41.773Z,0
2019-05-18T00:40:41.756Z,0
2019-05-18T00:41:41.747Z,0
2019-05-18T00:42:41.793Z,0
2019-05-18T00:43:41.473Z,0
2019-05-18T00:44:41.746Z,0
2019-05-18T00:45:41.699Z,0
2019-05-18T00:46:41.695Z,0
2019-05-18T00:47:48.374Z,0
2019-05-18T00:48:41.670Z,0
2019-05-18T00:49:41.676Z,0
2019-05-18T00:50:41.714Z,0
2019-05-18T00:51:41.657Z,0
2019-05-18T00:52:41.664Z,0
2019-05-18T00:53:41.625Z,0
2019-05-18T00:54:41.625Z,0
2019-05-18T00:55:41.673Z,0
2019-05-18T00:56:41.610Z,0
2019-05-18T00:57:41.606Z,0
2019-05-18T00:58:41.587Z,0
2019-05-18T00:59:41.574Z,0
2019-05-18T01:00:41.577Z,0
2019-05-18T01:01:41.629Z,0
2019-05-18T01:02:41.326Z,0
2019-05-18T01:03:41.549Z,0
2019-05-18T01:04:41.293Z,0
2019-05-18T01:05:45.133Z,0
2019-05-18T01:06:41.517Z,0
2019-05-18T01:07:41.515Z,0
2019-05-18T01:08:41.255Z,0
2019-05-18T01:09:41.537Z,0
2019-05-18T01:10:41.481Z,0
2019-05-18T01:11:41.473Z,0
2019-05-18T01:12:41.466Z,0
2019-05-18T01:13:41.210Z,0
2019-05-18T01:14:41.491Z,0
2019-05-18T01:15:41.435Z,0
2019-05-18T01:16:41.428Z,0
2019-05-18T01:17:55.083Z,0
2019-05-18T01:18:41.410Z,0
2019-05-18T01:19:41.420Z,0
2019-05-18T01:20:41.403Z,0
2019-05-18T01:21:41.379Z,0
2019-05-18T01:22:41.137Z,0
2019-05-18T01:23:41.363Z,0
2019-05-18T01:24:41.357Z,0
2019-05-18T01:25:41.362Z,0
2019-05-18T01:26:41.338Z,0
2019-05-18T01:27:41.135Z,0
2019-05-18T01:28:41.320Z,0
2019-05-18T01:29:41.091Z,0
2019-05-18T01:30:41.303Z,0
2019-05-18T01:31:41.293Z,0
2019-05-18T01:32:41.041Z,0
2019-05-18T01:33:41.278Z,0
2019-05-18T01:34:41.273Z,0
2019-05-18T01:35:41.259Z,0
2019-05-18T01:36:41.248Z,0
2019-05-18T01:37:41.236Z,0
2019-05-18T01:38:41.225Z,0
2019-05-18T01:39:41.219Z,0
2019-05-18T01:40:41.219Z,0
2019-05-18T01:41:48.275Z,0
2019-05-18T01:42:41.194Z,0
2019-05-18T01:43:41.198Z,0
2019-05-18T01:44:41.213Z,0
2019-05-18T01:45:41.166Z,0
2019-05-18T01:46:41.157Z,0
2019-05-18T01:47:41.156Z,0
2019-05-18T01:48:41.136Z,0
2019-05-18T01:49:41.200Z,0
2019-05-18T01:50:41.119Z,0
2019-05-18T01:51:41.141Z,0
2019-05-18T01:52:41.110Z,0
2019-05-18T01:53:41.103Z,0
2019-05-18T01:54:41.087Z,0
2019-05-18T01:55:41.087Z,0
2019-05-18T01:56:41.078Z,0
2019-05-18T01:57:40.818Z,0
2019-05-18T01:58:41.051Z,0
2019-05-18T01:59:41.043Z,0
2019-05-18T02:00:40.845Z,0
2019-05-18T02:01:41.022Z,0
2019-05-18T02:02:41.085Z,0
2019-05-18T02:03:41.012Z,0
2019-05-18T02:05:00.195Z,0
2019-05-18T02:05:41.011Z,0
2019-05-18T02:06:40.987Z,0
2019-05-18T02:07:40.978Z,0
2019-05-18T02:08:40.959Z,0
2019-05-18T02:09:40.951Z,0
2019-05-18T02:10:40.698Z,0
2019-05-18T02:11:40.938Z,0
2019-05-18T02:12:40.677Z,0
2019-05-18T02:13:40.908Z,0
2019-05-18T02:14:40.907Z,0
2019-05-18T02:15:40.906Z,0
2019-05-18T02:16:40.915Z,0
2019-05-18T02:17:40.643Z,0
2019-05-18T02:18:40.865Z,0
2019-05-18T02:19:40.861Z,0
2019-05-18T02:20:40.856Z,0
2019-05-18T02:21:40.848Z,0
2019-05-18T02:22:40.621Z,4
2019-05-18T02:23:40.820Z,4
2019-05-18T02:24:40.815Z,4
2019-05-18T02:25:40.806Z,4
2019-05-18T02:26:40.557Z,0
2019-05-18T02:27:40.785Z,4
2019-05-18T02:28:40.784Z,4
2019-05-18T02:29:40.778Z,8
2019-05-18T02:30:40.772Z,4
2019-05-18T02:31:40.801Z,4
2019-05-18T02:32:40.510Z,8
2019-05-18T02:33:40.751Z,8
2019-05-18T02:34:40.745Z,12
2019-05-18T02:35:40.508Z,12
2019-05-18T02:37:40.750Z,16
2019-05-18T02:38:40.455Z,16
2019-05-18T02:39:40.686Z,20
2019-05-18T02:40:40.669Z,20
2019-05-18T02:41:40.715Z,24
2019-05-18T02:42:40.446Z,28
2019-05-18T02:43:40.651Z,28
2019-05-18T02:44:40.790Z,36
2019-05-18T02:45:40.639Z,36
2019-05-18T02:46:40.650Z,40
2019-05-18T02:47:40.369Z,48
2019-05-18T02:48:55.521Z,56
2019-05-18T02:49:40.589Z,60
2019-05-18T02:50:40.603Z,68
2019-05-18T02:51:40.338Z,76
2019-05-18T02:52:40.596Z,84
2019-05-18T02:53:40.545Z,96
2019-05-18T02:54:40.560Z,104
2019-05-18T02:55:40.540Z,116
2019-05-18T02:56:40.526Z,128
2019-05-18T02:57:40.515Z,140
2019-05-18T02:58:40.493Z,152
2019-05-18T02:59:40.501Z,168
2019-05-18T03:00:40.494Z,188
2019-05-18T03:01:40.482Z,204
2019-05-18T03:02:40.468Z,224
2019-05-18T03:03:40.210Z,240
2019-05-18T03:04:40.578Z,264
2019-05-18T03:05:40.439Z,284
2019-05-18T03:06:40.428Z,304
2019-05-18T03:07:53.159Z,336
2019-05-18T03:08:40.398Z,356
2019-05-18T03:09:40.399Z,388
2019-05-18T03:10:40.396Z,416
2019-05-18T03:11:40.375Z,448
2019-05-18T03:12:40.441Z,480
2019-05-18T03:13:40.363Z,512
2019-05-18T03:14:40.118Z,548
2019-05-18T03:15:40.372Z,588
2019-05-18T03:16:40.360Z,628
2019-05-18T03:17:40.372Z,672
2019-05-18T03:18:40.320Z,724
2019-05-18T03:19:40.310Z,768
2019-05-18T03:20:40.314Z,820
2019-05-18T03:21:40.291Z,872
2019-05-18T03:22:40.279Z,932
2019-05-18T03:23:40.260Z,996
2019-05-18T03:24:40.259Z,1068
2019-05-18T03:25:40.263Z,1140
2019-05-18T03:26:39.996Z,1216
2019-05-18T03:28:40.247Z,1364
2019-05-18T03:29:40.206Z,1436
2019-05-18T03:30:40.246Z,1508
2019-05-18T03:31:40.261Z,1588
2019-05-18T03:32:40.190Z,1660
2019-05-18T03:33:40.210Z,1736
2019-05-18T03:34:40.186Z,1812
2019-05-18T03:35:40.230Z,1896
2019-05-18T03:36:40.150Z,1972
2019-05-18T03:37:40.179Z,2060
2019-05-18T03:38:40.198Z,2144
2019-05-18T03:39:44.394Z,2240
2019-05-18T03:40:40.106Z,2324
2019-05-18T03:41:40.093Z,2408
2019-05-18T03:42:40.092Z,2528
2019-05-18T03:43:40.076Z,2668
2019-05-18T03:44:40.068Z,2820
2019-05-18T03:45:40.060Z,2976
2019-05-18T03:46:40.093Z,3076
2019-05-18T03:47:40.043Z,3192
2019-05-18T03:48:40.027Z,3332
2019-05-18T03:49:40.019Z,3416
2019-05-18T03:50:40.214Z,3532
2019-05-18T03:51:40.015Z,3660
2019-05-18T03:52:39.996Z,3784
2019-05-18T03:53:39.982Z,3920
2019-05-18T03:54:39.972Z,4028
2019-05-18T03:55:39.973Z,4256
2019-05-18T03:56:39.976Z,4444
2019-05-18T03:57:40.031Z,4584
2019-05-18T03:58:39.942Z,4768
2019-05-18T03:59:39.957Z,4860
2019-05-18T04:00:39.938Z,5044
2019-05-18T04:01:39.928Z,5040
2019-05-18T04:02:39.957Z,5080
2019-05-18T04:03:39.928Z,5244
2019-05-18T04:04:39.900Z,5448
2019-05-18T04:05:39.655Z,5656
2019-05-18T04:06:39.880Z,5748
2019-05-18T04:07:39.911Z,5856
2019-05-18T04:08:39.901Z,6016
2019-05-18T04:09:39.875Z,6136
2019-05-18T04:10:39.648Z,6236
2019-05-18T04:11:39.619Z,6496
2019-05-18T04:12:39.854Z,6684
2019-05-18T04:13:39.894Z,6748
2019-05-18T04:14:39.886Z,6960
2019-05-18T04:15:39.845Z,6856
2019-05-18T04:16:39.833Z,6712
2019-05-18T04:17:39.919Z,6364
2019-05-18T04:18:39.811Z,5796
2019-05-18T04:19:53.306Z,5168
2019-05-18T04:20:39.820Z,5188
2019-05-18T04:21:40.409Z,5464
2019-05-18T04:22:39.842Z,5440
2019-05-18T04:23:39.803Z,5432
2019-05-18T04:24:39.808Z,5624
2019-05-18T04:25:43.433Z,5128
2019-05-18T04:26:39.786Z,4632
2019-05-18T04:27:39.778Z,4960
2019-05-18T04:28:39.785Z,5700
2019-05-18T04:29:39.768Z,6352
2019-05-18T04:30:39.770Z,6940
2019-05-18T04:31:39.996Z,7172
2019-05-18T04:32:39.768Z,7652
2019-05-18T04:33:39.786Z,8052
2019-05-18T04:34:39.779Z,8576
2019-05-18T04:35:39.763Z,9228
2019-05-18T04:36:39.868Z,10808
2019-05-18T04:37:39.761Z,11860
2019-05-18T04:38:39.735Z,12312
2019-05-18T04:39:39.745Z,13812
2019-05-18T04:40:41.001Z,14048
2019-05-18T04:41:39.786Z,14336
2019-05-18T04:42:39.752Z,14624
2019-05-18T04:43:39.731Z,14816
2019-05-18T04:44:39.481Z,15200
2019-05-18T04:45:39.796Z,15712
2019-05-18T04:46:39.717Z,15520
2019-05-18T04:47:39.710Z,16128
2019-05-18T04:48:39.748Z,17024
2019-05-18T04:49:42.000Z,16512
2019-05-18T04:50:39.710Z,16192
2019-05-18T04:51:39.712Z,16224
2019-05-18T04:52:39.738Z,15168
2019-05-18T04:53:39.701Z,15808
2019-05-18T04:54:39.727Z,18880
2019-05-18T04:55:39.717Z,19072
2019-05-18T04:56:42.780Z,17664
2019-05-18T04:57:39.719Z,18624
2019-05-18T04:58:39.741Z,19200
2019-05-18T04:59:39.704Z,18752
2019-05-18T05:00:39.732Z,19616
2019-05-18T05:01:39.752Z,20448
2019-05-18T05:02:39.731Z,19840
2019-05-18T05:03:39.737Z,19680
2019-05-18T05:04:39.714Z,20256
2019-05-18T05:05:39.729Z,22368
2019-05-18T05:06:39.715Z,23168
2019-05-18T05:07:39.729Z,22304
2019-05-18T05:08:39.785Z,22752
2019-05-18T05:09:42.269Z,22208
2019-05-18T05:10:39.718Z,23008
2019-05-18T05:11:39.729Z,26368
2019-05-18T05:12:39.726Z,25696
2019-05-18T05:13:39.737Z,22048
2019-05-18T05:14:39.736Z,23680
2019-05-18T05:15:39.749Z,26464
2019-05-18T05:16:39.754Z,23520
2019-05-18T05:17:39.774Z,22144
2019-05-18T05:18:39.797Z,25216
2019-05-18T05:19:39.757Z,25792
2019-05-18T05:20:39.527Z,23776
2019-05-18T05:21:39.767Z,24640
2019-05-18T05:22:39.781Z,26816
2019-05-18T05:23:39.784Z,26368
2019-05-18T05:24:39.789Z,26720
2019-05-18T05:25:39.793Z,28000
2019-05-18T05:26:41.980Z,29440
2019-05-18T05:27:39.835Z,30016
2019-05-18T05:28:39.809Z,29760
2019-05-18T05:29:39.811Z,29024
2019-05-18T05:30:39.828Z,29120
2019-05-18T05:31:39.823Z,29600
2019-05-18T05:32:39.837Z,29728
2019-05-18T05:33:39.925Z,31616
2019-05-18T05:34:39.857Z,33056
2019-05-18T05:35:42.502Z,31008
2019-05-18T05:36:39.613Z,27488
2019-05-18T05:37:39.877Z,27712
2019-05-18T05:38:39.908Z,32064
2019-05-18T05:39:39.881Z,36160
2019-05-18T05:40:39.891Z,35232
2019-05-18T05:41:39.903Z,28832
2019-05-18T05:42:39.925Z,25664
2019-05-18T05:43:39.669Z,30528
2019-05-18T05:44:39.923Z,38336
2019-05-18T05:45:39.932Z,38272
2019-05-18T05:46:42.155Z,32576
2019-05-18T05:47:39.947Z,29952
2019-05-18T05:48:39.947Z,34112
2019-05-18T05:49:39.951Z,40544
2019-05-18T05:50:43.262Z,40480
2019-05-18T05:51:39.728Z,36000
2019-05-18T05:52:39.996Z,33248
2019-05-18T05:53:39.989Z,36032
2019-05-18T05:54:40.002Z,42464
2019-05-18T05:55:40.009Z,42720
2019-05-18T05:56:40.019Z,36608
2019-05-18T05:57:41.054Z,33824
2019-05-18T05:58:40.043Z,38784
2019-05-18T05:59:40.078Z,45056
2019-05-18T06:00:40.050Z,45504
2019-05-18T06:01:40.070Z,40032
2019-05-18T06:02:40.070Z,35136
2019-05-18T06:03:40.077Z,35840
2019-05-18T06:04:40.084Z,40224
2019-05-18T06:05:40.128Z,43328
2019-05-18T06:06:40.107Z,42144
2019-05-18T06:07:40.109Z,39456
2019-05-18T06:08:40.122Z,36864
2019-05-18T06:09:40.136Z,36448
2019-05-18T06:10:40.155Z,39008
2019-05-18T06:11:40.142Z,41536
2019-05-18T06:12:40.157Z,40192
2019-05-18T06:13:40.169Z,36992
2019-05-18T06:14:39.929Z,35264
2019-05-18T06:15:40.178Z,38240
2019-05-18T06:16:40.203Z,40992
2019-05-18T06:17:40.223Z,39200
2019-05-18T06:18:40.248Z,35552
2019-05-18T06:19:40.219Z,32096
2019-05-18T06:20:55.149Z,31744
2019-05-18T06:21:40.000Z,32288
2019-05-18T06:22:40.257Z,33056
2019-05-18T06:23:40.281Z,32352
2019-05-18T06:24:40.298Z,29952
2019-05-18T06:25:41.550Z,29536
2019-05-18T06:26:40.291Z,30432
2019-05-18T06:27:40.403Z,38176
2019-05-18T06:28:40.316Z,47968
2019-05-18T06:29:40.324Z,55456
2019-05-18T06:30:40.338Z,58112
2019-05-18T06:31:40.372Z,53984
2019-05-18T06:32:40.365Z,49312
2019-05-18T06:33:40.375Z,48800
2019-05-18T06:34:40.379Z,52192
2019-05-18T06:35:40.405Z,57472
2019-05-18T06:36:40.406Z,61824
2019-05-18T06:37:40.420Z,66976
2019-05-18T06:38:40.427Z,71040
2019-05-18T06:39:40.437Z,68384
2019-05-18T06:40:40.447Z,61888
2019-05-18T06:41:40.513Z,59008
2019-05-18T06:42:40.578Z,63872
2019-05-18T06:43:40.488Z,71424
2019-05-18T06:44:40.498Z,75744
2019-05-18T06:45:40.566Z,77696
2019-05-18T06:46:40.527Z,77664
2019-05-18T06:47:40.577Z,79744
2019-05-18T06:48:43.099Z,79168
2019-05-18T06:49:40.613Z,73472
2019-05-18T06:50:40.578Z,66848
2019-05-18T06:51:40.583Z,63552
2019-05-18T06:52:40.613Z,63168
2019-05-18T06:53:40.609Z,64800
2019-05-18T06:54:40.620Z,65376
2019-05-18T06:55:40.636Z,66400
2019-05-18T06:56:40.671Z,69024
2019-05-18T06:57:40.665Z,71456
2019-05-18T06:58:40.665Z,71264
2019-05-18T06:59:40.722Z,74048
2019-05-18T07:00:40.694Z,78976
2019-05-18T07:01:40.720Z,78208
2019-05-18T07:02:40.720Z,74112
2019-05-18T07:03:40.820Z,72416
2019-05-18T07:04:40.750Z,72768
2019-05-18T07:05:40.763Z,70912
2019-05-18T07:06:40.774Z,70144
2019-05-18T07:07:40.781Z,73536
2019-05-18T07:08:40.794Z,73120
2019-05-18T07:09:40.808Z,70208
2019-05-18T07:10:40.835Z,71904
2019-05-18T07:11:40.596Z,75168
2019-05-18T07:12:40.850Z,71968
2019-05-18T07:13:40.866Z,64032
2019-05-18T07:14:40.880Z,64416
2019-05-18T07:15:40.919Z,71200
2019-05-18T07:16:41.105Z,70944
2019-05-18T07:17:41.568Z,66112
2019-05-18T07:18:40.936Z,66752
2019-05-18T07:19:40.951Z,66848
2019-05-18T07:20:40.965Z,64800
2019-05-18T07:21:40.974Z,61888
2019-05-18T07:22:41.003Z,60704
2019-05-18T07:23:43.661Z,56448
2019-05-18T07:24:41.031Z,52864
2019-05-18T07:25:41.046Z,51520
2019-05-18T07:26:41.069Z,52256
2019-05-18T07:27:41.112Z,51488
2019-05-18T07:28:41.073Z,48992
2019-05-18T07:29:41.105Z,46112
2019-05-18T07:30:41.112Z,43040
2019-05-18T07:31:41.118Z,43968
2019-05-18T07:32:40.900Z,48128
2019-05-18T07:33:41.147Z,50400
2019-05-18T07:34:41.172Z,49056
2019-05-18T07:35:41.173Z,48448
2019-05-18T07:36:41.199Z,52928
2019-05-18T07:37:41.263Z,59072
2019-05-18T07:38:41.220Z,60224
2019-05-18T07:39:43.204Z,59744
2019-05-18T07:40:41.257Z,60000
2019-05-18T07:41:53.291Z,60640
2019-05-18T07:42:41.031Z,58816
2019-05-18T07:43:41.297Z,54848
2019-05-18T07:44:41.310Z,53344
2019-05-18T07:45:41.330Z,56640
2019-05-18T07:46:41.364Z,59520
2019-05-18T07:47:41.107Z,55904
2019-05-18T07:48:41.358Z,51424
2019-05-18T07:49:41.372Z,51648
2019-05-18T07:50:41.395Z,60096
2019-05-18T07:51:44.293Z,68864
2019-05-18T07:52:41.166Z,70720
2019-05-18T07:53:41.428Z,69632
2019-05-18T07:54:41.441Z,68224
2019-05-18T07:55:41.220Z,69248
2019-05-18T07:56:41.486Z,69568
2019-05-18T07:57:41.243Z,62464
2019-05-18T07:58:41.506Z,59680
2019-05-18T07:59:41.510Z,64960
2019-05-18T08:00:41.520Z,83168
2019-05-18T08:01:41.541Z,103424
2019-05-18T08:02:41.311Z,114272
2019-05-18T08:03:41.565Z,118880
2019-05-18T08:04:44.548Z,117280
2019-05-18T08:05:41.585Z,113440
2019-05-18T08:06:41.608Z,110784
2019-05-18T08:07:41.678Z,111936
2019-05-18T08:08:41.626Z,113984
2019-05-18T08:09:41.675Z,121600
2019-05-18T08:10:43.555Z,126880
2019-05-18T08:11:41.670Z,103968
2019-05-18T08:12:41.697Z,76768
2019-05-18T08:13:41.750Z,73152
2019-05-18T08:14:41.714Z,78432
2019-05-18T08:15:41.540Z,81632
2019-05-18T08:16:41.752Z,80544
2019-05-18T08:17:41.793Z,78208
2019-05-18T08:18:41.780Z,80128
2019-05-18T08:19:41.789Z,83136
2019-05-18T08:20:41.571Z,79488
2019-05-18T08:21:56.998Z,76160
2019-05-18T08:22:41.583Z,76896
2019-05-18T08:23:41.842Z,79232
2019-05-18T08:24:41.855Z,78464
2019-05-18T08:25:41.867Z,72896
2019-05-18T08:26:41.888Z,69408
2019-05-18T08:27:41.924Z,69216
2019-05-18T08:28:41.970Z,72704
2019-05-18T08:29:41.921Z,78496
2019-05-18T08:30:41.933Z,81792
2019-05-18T08:31:41.997Z,81568
2019-05-18T08:32:41.970Z,82016
2019-05-18T08:33:41.991Z,84864
2019-05-18T08:34:42.004Z,85472
2019-05-18T08:35:42.033Z,77792
2019-05-18T08:36:41.999Z,66528
2019-05-18T08:37:42.147Z,59520
2019-05-18T08:38:41.786Z,60576
2019-05-18T08:39:42.035Z,66784
2019-05-18T08:40:42.039Z,70848
2019-05-18T08:41:42.073Z,71008
2019-05-18T08:42:41.595Z,72096
2019-05-18T08:43:42.081Z,80800
2019-05-18T08:44:42.079Z,86592
2019-05-18T08:45:42.490Z,48512
2019-05-18T08:46:42.093Z,10888
2019-05-18T08:47:42.159Z,7936
2019-05-18T08:48:42.110Z,7860
2019-05-18T08:50:42.141Z,7456
2019-05-18T08:51:42.173Z,7164
2019-05-18T08:52:42.297Z,7012
2019-05-18T08:53:42.156Z,7052
2019-05-18T08:54:42.157Z,7200
2019-05-18T08:55:42.186Z,7232
2019-05-18T08:56:42.195Z,7220
2019-05-18T08:57:43.204Z,7220
2019-05-18T08:58:41.942Z,7252
2019-05-18T08:59:44.459Z,7196
2019-05-18T09:00:42.181Z,7184
2019-05-18T09:01:42.200Z,7192
2019-05-18T09:02:41.948Z,7080
2019-05-18T09:03:42.186Z,6980
2019-05-18T09:04:42.194Z,6908
2019-05-18T09:05:42.185Z,6940
2019-05-18T09:06:42.199Z,6940
2019-05-18T09:07:41.945Z,6932
2019-05-18T09:08:42.230Z,6952
2019-05-18T09:09:42.192Z,6880
2019-05-18T09:10:42.209Z,6996
2019-05-18T09:11:42.193Z,7200
2019-05-18T09:12:43.136Z,7280
2019-05-18T09:13:41.961Z,7128
2019-05-18T09:14:42.196Z,6936
2019-05-18T09:15:42.191Z,6824
2019-05-18T09:16:42.246Z,6836
2019-05-18T09:17:43.471Z,6912
2019-05-18T09:19:42.184Z,6820
2019-05-18T09:20:42.472Z,6680
2019-05-18T09:21:43.600Z,6700
2019-05-18T09:23:42.197Z,6812
2019-05-18T09:24:42.180Z,6800
2019-05-18T09:25:42.189Z,6632
2019-05-18T09:27:41.986Z,6320
2019-05-18T09:28:42.171Z,6340
2019-05-18T09:29:41.925Z,6344
2019-05-18T09:30:43.748Z,6196
2019-05-18T09:31:42.178Z,6096
2019-05-18T09:32:41.916Z,6176
2019-05-18T09:33:42.224Z,6120
2019-05-18T09:34:42.178Z,6180
2019-05-18T09:35:42.163Z,6132
2019-05-18T09:36:43.602Z,6072
2019-05-18T09:37:41.911Z,6060
2019-05-18T09:38:42.158Z,6068
2019-05-18T09:39:42.214Z,6088
2019-05-18T09:40:42.145Z,6108
2019-05-18T09:41:42.146Z,6124
2019-05-18T09:42:42.148Z,6196
2019-05-18T09:44:42.136Z,6296
2019-05-18T09:45:42.141Z,6336
2019-05-18T09:46:42.142Z,6396
2019-05-18T09:47:42.136Z,6392
2019-05-18T09:48:42.207Z,6364
2019-05-18T09:49:42.132Z,6336
2019-05-18T09:50:42.122Z,6312
2019-05-18T09:51:42.118Z,6300
2019-05-18T09:52:52.466Z,6416
2019-05-18T09:53:55.873Z,6580
2019-05-18T09:54:42.117Z,6616
2019-05-18T09:55:42.133Z,6656
2019-05-18T09:56:42.110Z,6652
2019-05-18T09:57:42.111Z,6604
2019-05-18T09:58:42.119Z,6456
2019-05-18T09:59:42.105Z,6336
2019-05-18T10:00:45.946Z,6292
2019-05-18T10:01:42.112Z,6296
2019-05-18T10:02:42.145Z,6336
2019-05-18T10:03:42.101Z,6364
2019-05-18T10:04:42.140Z,6356
2019-05-18T10:05:45.918Z,6316
2019-05-18T10:06:41.897Z,6280
2019-05-18T10:07:42.115Z,6260
2019-05-18T10:08:42.085Z,6316
2019-05-18T10:09:46.472Z,6428
2019-05-18T10:10:42.082Z,6564
2019-05-18T10:11:45.693Z,6440
2019-05-18T10:12:54.810Z,6612
2019-05-18T10:14:41.848Z,6636
2019-05-18T10:15:42.075Z,6608
2019-05-18T10:16:42.076Z,6604
2019-05-18T10:17:42.075Z,6560
2019-05-18T10:18:42.072Z,6536
2019-05-18T10:19:42.076Z,6632
2019-05-18T10:20:42.073Z,6604
2019-05-18T10:21:42.126Z,6608
2019-05-18T10:23:14.064Z,6728
2019-05-18T10:23:45.169Z,6780
2019-05-18T10:24:42.078Z,6892
2019-05-18T10:25:42.075Z,7016
2019-05-18T10:26:41.813Z,7040
2019-05-18T10:27:41.810Z,6888
2019-05-18T10:28:42.052Z,6860
2019-05-18T10:29:42.064Z,6900
2019-05-18T10:30:42.045Z,6884
2019-05-18T10:31:42.046Z,6812
2019-05-18T10:32:42.045Z,6812
2019-05-18T10:33:42.049Z,6744
2019-05-18T10:34:42.042Z,6632
2019-05-18T10:35:42.042Z,6580
2019-05-18T10:36:42.062Z,6604
2019-05-18T10:37:42.044Z,6616
2019-05-18T10:38:42.052Z,6676
2019-05-18T10:39:43.917Z,6756
2019-05-18T10:40:42.642Z,6648
2019-05-18T10:41:42.026Z,6360
2019-05-18T10:42:42.054Z,7100
2019-05-18T10:43:42.026Z,7432
2019-05-18T10:44:42.082Z,7612
2019-05-18T10:46:42.022Z,9500
2019-05-18T10:47:42.026Z,9684
2019-05-18T10:48:42.018Z,9448
2019-05-18T10:49:42.033Z,8764
2019-05-18T10:50:42.033Z,8420
2019-05-18T10:51:42.026Z,8092
2019-05-18T10:52:41.781Z,7684
2019-05-18T10:53:42.065Z,7672
2019-05-18T10:54:42.041Z,7796
2019-05-18T10:55:42.045Z,7796
2019-05-18T10:56:42.008Z,7096
2019-05-18T10:57:41.782Z,7168
2019-05-18T10:58:42.036Z,7460
2019-05-18T10:59:42.003Z,7460
2019-05-18T11:00:42.003Z,7056
2019-05-18T11:01:43.976Z,7564
2019-05-18T11:02:42.129Z,7764
2019-05-18T11:03:41.993Z,7996
2019-05-18T11:04:41.837Z,7848
2019-05-18T11:05:42.009Z,7216
2019-05-18T11:06:41.995Z,7596
2019-05-18T11:07:42.002Z,7544
2019-05-18T11:08:45.527Z,7344
2019-05-18T11:09:42.000Z,8348
2019-05-18T11:10:42.006Z,8584
2019-05-18T11:11:41.987Z,8224
2019-05-18T11:12:41.995Z,9048
2019-05-18T11:13:42.015Z,9956
2019-05-18T11:14:42.033Z,10368
2019-05-18T11:15:42.075Z,10040
2019-05-18T11:16:41.982Z,9540
2019-05-18T11:17:42.017Z,9200
2019-05-18T11:18:41.988Z,9304
2019-05-18T11:19:41.994Z,10224
2019-05-18T11:21:41.984Z,12656
2019-05-18T11:22:41.980Z,13416
2019-05-18T11:23:52.742Z,13480
2019-05-18T11:24:41.977Z,12792
2019-05-18T11:25:41.979Z,11928
2019-05-18T11:26:41.977Z,10972
2019-05-18T11:27:41.994Z,9824
2019-05-18T11:28:41.739Z,10128
2019-05-18T11:29:42.087Z,9944
2019-05-18T11:30:41.979Z,9820
2019-05-18T11:31:41.981Z,9636
2019-05-18T11:32:41.975Z,10096
2019-05-18T11:33:42.167Z,10260
2019-05-18T11:34:41.988Z,10640
2019-05-18T11:35:41.985Z,10780
2019-05-18T11:36:41.993Z,10512
2019-05-18T11:37:41.998Z,10260
2019-05-18T11:38:42.047Z,9968
2019-05-18T11:39:41.980Z,9464
2019-05-18T11:40:42.037Z,8756
2019-05-18T11:41:42.082Z,8504
2019-05-18T11:42:41.788Z,8376
2019-05-18T11:43:41.981Z,8396
2019-05-18T11:44:41.983Z,8548
2019-05-18T11:45:41.739Z,8072
2019-05-18T11:46:41.987Z,7584
2019-05-18T11:47:42.018Z,7112
2019-05-18T11:48:41.970Z,6752
2019-05-18T11:49:41.979Z,6652
2019-05-18T11:50:41.971Z,6660
2019-05-18T11:51:41.748Z,6596
2019-05-18T11:52:42.040Z,6248
2019-05-18T11:53:41.733Z,6428
2019-05-18T11:54:42.021Z,6808
2019-05-18T11:55:41.984Z,7656
2019-05-18T11:56:41.982Z,8480
2019-05-18T11:57:41.735Z,9304
2019-05-18T11:58:42.001Z,10336
2019-05-18T11:59:41.989Z,10940
2019-05-18T12:00:42.054Z,11036
2019-05-18T12:01:41.995Z,10312
2019-05-18T12:02:41.749Z,8820
2019-05-18T12:03:42.029Z,8056
2019-05-18T12:04:41.988Z,7484
2019-05-18T12:05:41.983Z,6660
2019-05-18T12:06:41.997Z,6448
2019-05-18T12:07:41.984Z,6336
2019-05-18T12:08:41.980Z,6396
2019-05-18T12:09:42.049Z,6500
2019-05-18T12:10:42.050Z,6572
2019-05-18T12:11:41.787Z,6620
2019-05-18T12:12:42.073Z,6804
2019-05-18T12:13:41.984Z,7404
2019-05-18T12:14:41.986Z,8444
2019-05-18T12:15:41.990Z,9872
2019-05-18T12:16:41.731Z,11328
2019-05-18T12:17:41.998Z,12332
2019-05-18T12:18:41.975Z,12596
2019-05-18T12:19:41.986Z,12096
2019-05-18T12:20:42.013Z,11048
2019-05-18T12:21:42.005Z,9884
2019-05-18T12:22:41.744Z,8824
2019-05-18T12:23:42.113Z,8100
2019-05-18T12:24:42.019Z,7664
2019-05-18T12:25:41.986Z,7192
2019-05-18T12:26:41.979Z,6544
2019-05-18T12:27:42.450Z,6160
2019-05-18T12:28:41.976Z,5924
2019-05-18T12:29:41.982Z,5708
2019-05-18T12:31:41.982Z,5776
2019-05-18T12:32:41.763Z,6196
2019-05-18T12:33:41.745Z,6348
2019-05-18T12:34:45.590Z,6720
2019-05-18T12:35:41.980Z,7056
2019-05-18T12:36:42.020Z,7520
2019-05-18T12:37:41.992Z,8028
2019-05-18T12:38:41.979Z,8248
2019-05-18T12:39:41.984Z,7700
2019-05-18T12:40:41.977Z,7624
2019-05-18T12:41:41.995Z,7668
2019-05-18T12:42:42.011Z,7444
2019-05-18T12:43:42.022Z,6792
2019-05-18T12:44:42.112Z,6008
2019-05-18T12:45:41.998Z,5596
2019-05-18T12:46:42.181Z,5136
2019-05-18T12:47:41.993Z,4836
2019-05-18T12:48:42.000Z,4812
2019-05-18T12:49:41.989Z,4880
2019-05-18T12:50:42.037Z,5280
2019-05-18T12:51:41.988Z,5368
2019-05-18T12:52:41.985Z,5464
2019-05-18T12:53:41.995Z,5576
2019-05-18T12:54:53.716Z,5652
2019-05-18T12:55:41.999Z,6080
2019-05-18T12:56:41.555Z,6256
2019-05-18T12:57:41.985Z,6428
2019-05-18T12:58:44.735Z,6312
2019-05-18T12:59:41.992Z,6236
2019-05-18T13:00:42.003Z,5868
2019-05-18T13:01:41.743Z,6104
2019-05-18T13:02:41.990Z,6404
2019-05-18T13:03:41.985Z,6108
2019-05-18T13:04:44.300Z,5892
2019-05-18T13:05:41.827Z,5848
2019-05-18T13:06:41.984Z,6128
2019-05-18T13:07:41.738Z,6596
2019-05-18T13:08:41.982Z,7124
2019-05-18T13:09:42.026Z,7144
2019-05-18T13:10:42.056Z,6508
2019-05-18T13:11:41.989Z,6392
2019-05-18T13:12:41.745Z,6428
2019-05-18T13:13:41.987Z,6692
2019-05-18T13:14:41.985Z,6312
2019-05-18T13:15:42.013Z,6148
2019-05-18T13:16:41.979Z,6080
2019-05-18T13:17:41.757Z,6048
2019-05-18T13:18:41.993Z,6324
2019-05-18T13:19:41.983Z,7156
2019-05-18T13:20:41.984Z,7472
2019-05-18T13:21:41.983Z,7736
2019-05-18T13:22:41.987Z,8080
2019-05-18T13:23:41.993Z,8392
2019-05-18T13:24:54.627Z,8208
2019-05-18T13:25:41.991Z,8032
2019-05-18T13:26:41.758Z,7716
2019-05-18T13:27:46.832Z,7188
2019-05-18T13:28:41.975Z,6848
2019-05-18T13:29:41.991Z,6512
2019-05-18T13:30:41.976Z,6200
2019-05-18T13:31:41.981Z,5996
2019-05-18T13:32:42.054Z,5776
2019-05-18T13:33:41.982Z,5656
2019-05-18T13:34:41.982Z,5624
2019-05-18T13:35:45.317Z,5640
2019-05-18T13:36:41.974Z,5632
2019-05-18T13:37:42.030Z,5544